San Carlos, CA

8:17 PM PDT on April 01, 2015 (GMT -0700)
Beverly Terrace (Highlands Park Area) | | Change Station
CLOSE
Current Station
Personal Weather Station
Location: San Carlos, CA
Elevation: 282 ft
Nearby Weather Stations

Elev 282 ft 37.50 °N, 122.27 °W | Updated 6 minutes ago

Partly Cloudy
Partly Cloudy
52.5 °F
Feels Like 52.5 °F
N
5.3
Wind Variable Wind from South

Today
High -- | Low -- °F
--% Chance of Precip.
Yesterday
High -- | Low -- °F
Precip. -- in
6:54 AM 7:31 PM
Waxing Gibbous, 95% visible
Pressure 30.10 in
Visibility 10.0 miles
Clouds Few 5000 ft
Dew Point 42 °F
Humidity 68%
Rainfall 0.00 in
Snow Depth Not available.
UV 0 out of 12
Pollen 9.30 out of 12
Air Quality Not available.
Flu Activity Not available.
METAR KSQL 020247Z 28007KT 10SM FEW050 13/05 A3010

More Conditions Fewer Conditions

Pressure 30.10 in
Visibility 10.0 miles
Clouds Few 5000 ft
Dew Point 42 °F
Humidity 68%
Rainfall 0.00 in
Snow Depth Not available.
UV 0 out of 12
Pollen 9.30 out of 12
Air Quality Not available.
Flu Activity Not available.
METAR KSQL 020247Z 28007KT 10SM FEW050 13/05 A3010

More Conditions Fewer Conditions

10-Day Weather Forecast

Almanac

Astronomy

Apr. 01, 2015 Rise Set
Actual Time
Civil Twilight
Nautical Twilight
Astronomical Twilight
Moon
Length of Visible Light
Length of Day
Tomorrow will be .
, % of the Moon is Illuminated

Today's Extremes

State Highs State Lows

Community

WunderPhotos

Upload Photos

1,810,179 photos uploaded!

WunderBlogs® & News

Nearby

Air Quality

  Air Quality AQ Index Pollutant
Not available.

Snow Depth

Station Depth Elevation

Earthquake Activity

City Distance Mag. Time & Date
Minimum magnitude displayed is 2.5.

Coastal Water Temperatures

Place Temperature

Stations

Nearby Weather Stations

Station Location Temp. Windchill Dew Point Humidity Wind Precip. Elev Updated Type